createdAt,value
2018-12-08T00:03:50.496Z,99.90
2018-12-08T00:08:52.953Z,99.90
2018-12-08T00:13:55.398Z,99.90
2018-12-08T00:18:58.126Z,99.90
2018-12-08T00:24:00.556Z,99.90
2018-12-08T00:29:03.071Z,99.90
2018-12-08T00:34:05.620Z,99.90
2018-12-08T00:39:08.166Z,99.90
2018-12-08T00:44:10.666Z,99.90
2018-12-08T00:49:13.121Z,99.90
2018-12-08T00:54:15.665Z,99.90
2018-12-08T00:59:18.118Z,99.90
2018-12-08T01:04:20.515Z,99.90
2018-12-08T01:09:22.978Z,99.90
2018-12-08T01:14:25.381Z,99.90
2018-12-08T01:19:27.940Z,99.90
2018-12-08T01:24:30.397Z,99.90
2018-12-08T01:29:32.983Z,99.90
2018-12-08T01:34:35.522Z,99.90
2018-12-08T01:39:38.047Z,99.90
2018-12-08T01:44:40.571Z,99.90
2018-12-08T01:49:43.048Z,99.90
2018-12-08T01:54:45.517Z,99.90
2018-12-08T01:59:48.027Z,99.90
2018-12-08T02:04:50.493Z,99.90
2018-12-08T02:09:52.942Z,99.90
2018-12-08T02:14:55.402Z,99.90
2018-12-08T02:19:57.918Z,99.90
2018-12-08T02:25:00.363Z,99.90
2018-12-08T02:30:03.192Z,99.90
2018-12-08T02:35:05.840Z,99.90
2018-12-08T02:40:08.427Z,99.90
2018-12-08T02:45:10.905Z,99.90
2018-12-08T02:50:13.391Z,99.90
2018-12-08T02:55:15.802Z,99.90
2018-12-08T03:00:18.227Z,99.90
2018-12-08T03:05:20.676Z,99.90
2018-12-08T03:10:23.169Z,99.90
2018-12-08T03:15:25.985Z,99.90
2018-12-08T03:20:28.596Z,99.90
2018-12-08T03:25:31.093Z,99.90
2018-12-08T03:30:33.590Z,99.90
2018-12-08T03:35:36.177Z,99.90
2018-12-08T03:40:38.655Z,99.90
2018-12-08T03:45:41.099Z,99.90
2018-12-08T03:50:43.580Z,99.90
2018-12-08T03:55:46.050Z,99.90
2018-12-08T04:00:48.506Z,99.90
2018-12-08T04:05:50.963Z,99.90
2018-12-08T04:10:53.520Z,99.90
2018-12-08T04:15:55.987Z,99.90
2018-12-08T04:20:58.431Z,99.90
2018-12-08T04:26:00.918Z,99.90
2018-12-08T04:31:03.347Z,99.90
2018-12-08T04:36:05.788Z,99.90
2018-12-08T04:41:08.238Z,99.90
2018-12-08T04:46:10.684Z,99.90
2018-12-08T04:51:13.539Z,99.90
2018-12-08T04:56:16.036Z,99.90
2018-12-08T05:01:18.480Z,99.90
2018-12-08T05:06:20.937Z,99.90
2018-12-08T05:11:23.435Z,99.90
2018-12-08T05:16:25.919Z,99.90
2018-12-08T05:21:28.359Z,99.90
2018-12-08T05:26:30.805Z,99.90
2018-12-08T05:31:33.340Z,99.90
2018-12-08T05:36:35.833Z,99.90
2018-12-08T05:41:38.260Z,99.90
2018-12-08T05:46:40.708Z,99.90
2018-12-08T05:51:43.139Z,99.90
2018-12-08T05:56:45.607Z,99.90
2018-12-08T06:01:48.281Z,99.90
2018-12-08T06:06:50.760Z,99.90
2018-12-08T06:11:53.170Z,99.90
2018-12-08T06:16:55.633Z,99.90
2018-12-08T06:21:58.054Z,99.90
2018-12-08T06:27:00.597Z,99.90
2018-12-08T06:32:03.021Z,99.90
2018-12-08T06:37:05.482Z,99.90
2018-12-08T06:42:07.987Z,99.90
2018-12-08T06:47:10.664Z,99.90
2018-12-08T06:52:13.908Z,99.90
2018-12-08T06:57:16.495Z,99.90
2018-12-08T07:02:19.047Z,99.90
2018-12-08T07:07:21.435Z,99.90
2018-12-08T07:12:23.980Z,99.90
2018-12-08T07:17:26.455Z,99.90
2018-12-08T07:22:28.863Z,99.90
2018-12-08T07:27:31.342Z,99.90
2018-12-08T07:32:38.875Z,99.90
2018-12-08T07:37:38.291Z,99.90
2018-12-08T07:42:40.690Z,99.90
2018-12-08T07:47:43.170Z,99.90
2018-12-08T07:52:45.596Z,99.90
2018-12-08T07:57:48.034Z,99.90
2018-12-08T08:02:50.479Z,99.90
2018-12-08T08:07:52.968Z,99.90
2018-12-08T08:12:55.364Z,99.90
2018-12-08T08:17:58.794Z,99.90
2018-12-08T08:23:01.206Z,99.90
2018-12-08T08:28:03.651Z,99.90
2018-12-08T08:33:06.072Z,99.90
2018-12-08T08:38:08.566Z,99.90
2018-12-08T08:43:11.050Z,99.90
2018-12-08T08:48:13.570Z,99.90
2018-12-08T08:53:16.083Z,99.90
2018-12-08T08:58:18.511Z,99.90
2018-12-08T09:03:20.975Z,99.90
2018-12-08T09:08:23.558Z,99.90
2018-12-08T09:13:25.974Z,99.90
2018-12-08T09:18:28.505Z,99.90
2018-12-08T09:23:30.902Z,99.90
2018-12-08T09:28:33.405Z,99.90
2018-12-08T09:33:35.867Z,99.90
2018-12-08T09:38:38.290Z,99.90
2018-12-08T09:43:40.713Z,98.90
2018-12-08T09:48:43.173Z,99.90
2018-12-08T09:53:45.631Z,97.20
2018-12-08T09:58:48.033Z,97.00
2018-12-08T10:03:50.511Z,96.20
2018-12-08T10:08:52.928Z,96.10
2018-12-08T10:13:55.419Z,96.20
2018-12-08T10:18:57.831Z,95.00
2018-12-08T10:24:00.423Z,97.50
2018-12-08T10:29:02.914Z,95.50
2018-12-08T10:34:05.416Z,95.80
2018-12-08T10:39:08.023Z,96.30
2018-12-08T10:44:10.510Z,96.60
2018-12-08T10:49:13.011Z,94.90
2018-12-08T10:54:15.426Z,94.60
2018-12-08T10:59:20.618Z,93.20
2018-12-08T11:04:25.450Z,92.80
2018-12-08T11:09:27.942Z,92.40
2018-12-08T11:14:31.538Z,93.50
2018-12-08T11:19:33.947Z,90.60
2018-12-08T11:24:36.398Z,92.00
2018-12-08T11:29:38.858Z,90.40
2018-12-08T11:34:41.272Z,92.20
2018-12-08T11:39:43.794Z,90.80
2018-12-08T11:49:50.905Z,92.20
2018-12-08T11:54:53.323Z,90.00
2018-12-08T11:59:55.857Z,89.70
2018-12-08T12:05:00.901Z,90.80
2018-12-08T12:10:03.565Z,89.30
2018-12-08T12:15:06.377Z,90.10
2018-12-08T12:20:09.106Z,90.10
2018-12-08T12:25:11.817Z,90.10
2018-12-08T12:30:14.263Z,89.50
2018-12-08T12:35:16.672Z,89.10
2018-12-08T12:40:19.091Z,88.30
2018-12-08T12:45:21.507Z,88.60
2018-12-08T12:50:23.959Z,89.80
2018-12-08T12:55:26.438Z,90.10
2018-12-08T13:00:28.847Z,90.70
2018-12-08T13:05:31.328Z,90.30
2018-12-08T13:10:33.766Z,90.40
2018-12-08T13:15:36.205Z,89.00
2018-12-08T13:20:40.128Z,90.40
2018-12-08T13:25:42.645Z,90.70
2018-12-08T13:30:45.138Z,90.90
2018-12-08T13:35:54.372Z,90.40
2018-12-08T13:40:56.810Z,90.50
2018-12-08T13:45:59.294Z,90.70
2018-12-08T13:51:02.525Z,90.90
2018-12-08T13:56:05.012Z,91.40
2018-12-08T14:01:07.426Z,92.00
2018-12-08T14:06:09.837Z,93.20
2018-12-08T14:11:12.293Z,93.90
2018-12-08T14:16:14.767Z,94.90
2018-12-08T14:21:17.362Z,95.80
2018-12-08T14:26:19.919Z,96.60
2018-12-08T14:31:22.614Z,97.20
2018-12-08T14:36:25.158Z,98.30
2018-12-08T14:41:27.571Z,98.90
2018-12-08T14:46:30.166Z,99.40
2018-12-08T14:51:32.580Z,99.90
2018-12-08T14:56:35.059Z,99.80
2018-12-08T15:01:37.570Z,99.90
2018-12-08T15:06:40.044Z,99.90
2018-12-08T15:11:42.486Z,99.90
2018-12-08T15:16:44.931Z,99.90
2018-12-08T15:21:47.325Z,99.90
2018-12-08T15:26:49.867Z,99.90
2018-12-08T15:31:52.302Z,99.90
2018-12-08T15:36:54.834Z,99.90
2018-12-08T15:41:57.394Z,99.90
2018-12-08T15:46:59.837Z,99.90
2018-12-08T15:52:02.314Z,99.90
2018-12-08T15:57:04.811Z,99.90
2018-12-08T16:02:07.308Z,99.90
2018-12-08T16:07:10.643Z,99.90
2018-12-08T16:12:13.320Z,99.90
2018-12-08T16:17:15.825Z,99.90
2018-12-08T16:22:18.234Z,99.90
2018-12-08T16:27:20.646Z,99.90
2018-12-08T16:32:23.135Z,99.90
2018-12-08T16:37:25.584Z,99.90
2018-12-08T16:42:28.083Z,99.90
2018-12-08T16:47:30.490Z,99.90
2018-12-08T16:52:33.220Z,99.90
2018-12-08T16:57:35.706Z,99.90
2018-12-08T17:02:38.207Z,99.90
2018-12-08T17:07:40.700Z,99.90
2018-12-08T17:12:43.182Z,99.90
2018-12-08T17:17:45.905Z,99.90
2018-12-08T17:22:59.776Z,99.90
2018-12-08T17:28:03.729Z,99.90
2018-12-08T17:33:06.159Z,99.90
2018-12-08T17:38:09.273Z,99.90
2018-12-08T17:43:11.910Z,99.90
2018-12-08T17:48:14.326Z,99.90
2018-12-08T17:53:16.734Z,99.90
2018-12-08T17:58:19.131Z,99.90
2018-12-08T18:03:21.656Z,99.90
2018-12-08T18:08:24.102Z,99.90
2018-12-08T18:13:26.914Z,99.90
2018-12-08T18:18:29.415Z,99.90
2018-12-08T18:23:31.898Z,99.90
2018-12-08T18:28:34.383Z,99.90
2018-12-08T18:33:36.880Z,99.90
2018-12-08T18:38:39.378Z,99.90
2018-12-08T18:43:43.411Z,99.90
2018-12-08T18:48:45.912Z,99.90
2018-12-08T18:53:49.020Z,99.90
2018-12-08T18:58:51.478Z,99.90
2018-12-08T19:03:54.063Z,99.90
2018-12-08T19:08:56.970Z,99.90
2018-12-08T19:13:59.494Z,99.90
2018-12-08T19:19:02.124Z,99.90
2018-12-08T19:24:04.603Z,99.90
2018-12-08T19:29:07.034Z,99.90
2018-12-08T19:34:09.469Z,99.90
2018-12-08T19:39:11.940Z,99.90
2018-12-08T19:44:14.452Z,99.90
2018-12-08T19:49:16.905Z,99.90
2018-12-08T19:54:19.425Z,99.90
2018-12-08T19:59:21.963Z,99.90
2018-12-08T20:04:24.378Z,99.90
2018-12-08T20:09:26.852Z,99.90
2018-12-08T20:14:29.372Z,99.90
2018-12-08T20:19:31.797Z,99.90
2018-12-08T20:24:34.337Z,99.90
2018-12-08T20:29:37.006Z,99.90
2018-12-08T20:34:39.414Z,99.90
2018-12-08T20:39:41.936Z,99.90
2018-12-08T20:44:44.385Z,99.90
2018-12-08T20:49:46.887Z,99.90
2018-12-08T20:54:49.396Z,99.90
2018-12-08T20:59:53.169Z,99.90
2018-12-08T21:04:55.789Z,99.90
2018-12-08T21:10:03.068Z,99.90
2018-12-08T21:15:05.573Z,99.90
2018-12-08T21:20:08.178Z,99.90
2018-12-08T21:25:10.679Z,99.90
2018-12-08T21:30:13.159Z,99.90
2018-12-08T21:35:15.607Z,99.90
2018-12-08T21:40:24.865Z,99.90
2018-12-08T21:45:27.383Z,99.90
2018-12-08T21:50:29.897Z,99.90
2018-12-08T21:55:32.335Z,99.90
2018-12-08T22:00:34.819Z,99.90
2018-12-08T22:05:37.262Z,99.90
2018-12-08T22:10:39.753Z,99.90
2018-12-08T22:15:42.191Z,99.90
2018-12-08T22:20:44.658Z,99.90
2018-12-08T22:25:47.111Z,99.90
2018-12-08T22:30:49.577Z,99.90
2018-12-08T22:35:52.394Z,99.90
2018-12-08T22:40:54.852Z,99.90
2018-12-08T22:45:57.308Z,99.90
2018-12-08T22:50:59.782Z,99.90
2018-12-08T22:56:02.251Z,99.90
2018-12-08T23:01:04.873Z,99.90
2018-12-08T23:06:07.370Z,99.90
2018-12-08T23:11:09.914Z,99.90
2018-12-08T23:16:12.376Z,99.90
2018-12-08T23:21:15.678Z,99.90
2018-12-08T23:26:18.210Z,99.90
2018-12-08T23:31:20.670Z,99.90
2018-12-08T23:36:23.151Z,99.90
2018-12-08T23:41:25.647Z,99.90
2018-12-08T23:46:28.090Z,99.90
2018-12-08T23:51:30.555Z,99.90
2018-12-08T23:56:33.747Z,99.90
